Servia, Indiana
Current Conditions -  °F | °C
As of 8:15 PM on Friday 28 Nov 2014 (Local Time) from KHHG Reporting Station
Clear Clear  
Wind Chill: 23°   Ceiling: Unl
Heat Index: 30°   Visibility: 10mi
Dew Point: 20°   Wind: 8mph
Humidity: 67%   Direction: 180°S
Pressure: 30.08"   Gusts: NA
Location:  40.96°N, 85.74°W
Report Text: KHHG 290115Z AUTO 18007KT 10SM CLR M01/M06 A3008 RMK AO2 T10101065
Loading
Personal Weather Stations






























Interactive Weather Map New forecast layout! Learn more

10-Day Weather Forecast

Advertisements
Track Severe Weather on mobile